Holloway, United Kingdom
Current Conditions -  °F | °C
As of 3:50 PM on Wednesday 26 Nov 2014 (Local Time) from EGLC Reporting Station
Haze Haze  
Wind Chill: 10°   Ceiling: 100
Heat Index: 10°   Visibility: 0.68mi
Dew Point:   Wind: 3mph
Humidity: 94%   Direction: NA
Pressure: 29.8"   Gusts: NA
Location:  51.55°N, 0.13°W
Report Text: EGLC 261550Z VRB03KT 1100 R09/P1500 R27/P1500 BR BKN001 10/09 Q1009
Loading
Personal Weather Stations






























Interactive Weather Map New forecast layout! Learn more

10-Day Weather Forecast

Advertisements
Track Severe Weather on mobile